El Vigia, Venezuela
Current Conditions -  °F | °C
As of 11:00 AM on Saturday 25 Oct 2014 (Local Time) from SVVG Reporting Station
Broken Clouds Broken Clouds  
Wind Chill: 77°   Ceiling: 10000
Heat Index: 78°   Visibility: 6mi
Dew Point: 75°   Wind: 3mph
Humidity: 94%   Direction: 260°W
Pressure: 29.85"   Gusts: NA
Location:  8.63°N, 71.65°W
Report Text: SVVG 251500Z 26003KT 9999 FEW017 BKN100 25/24 Q1011
Loading
Personal Weather Stations






























Interactive Weather Map New forecast layout! Learn more

10-Day Weather Forecast

Advertisements
Track Severe Weather on mobile